Rainbow City, AL (35906)

7:20 AM CST on November 27, 2014 (GMT -0600)
KALRAINB7 | Change Station
CLOSE
Current Station
Personal Weather Station
Location: Rainbow City, AL
Elevation: 554 ft
Nearby Weather Stations

Elev 554 ft 33.92 °N, 86.10 °W | Updated 3 minutes ago

Mostly Cloudy
Mostly Cloudy
40.0 °F
Feels Like 40 °F
N
2.0
Wind Variable Wind from NW

Today
High -- | Low -- °F
--% Chance of Precip.
Yesterday
High -- | Low -- °F
Precip. -- in
6:27 AM 4:35 PM
Waxing Crescent, 29% visible
Pressure 30.29 in
Visibility 10.0 miles
Clouds Scattered Clouds 2600 ft
Mostly Cloudy 3200 ft
Windchill 40 °F
Dew Point 33 °F
Humidity 76%
Rainfall 0.00 in
Snow Depth Not available.
UV 0 out of 12
Pollen .70 out of 12
Air Quality Not available.
Flu Activity Not available.
METAR KGAD 271315Z 29006KT 10SM SCT026 BKN032 04/M01 A3029 RMK AO1

More Conditions Fewer Conditions

Pressure 30.29 in
Visibility 10.0 miles
Clouds Scattered Clouds 2600 ft
Mostly Cloudy 3200 ft
Windchill 40 °F
Dew Point 33 °F
Humidity 76%
Rainfall 0.00 in
Snow Depth Not available.
UV 0 out of 12
Pollen .70 out of 12
Air Quality Not available.
Flu Activity Not available.
METAR KGAD 271315Z 29006KT 10SM SCT026 BKN032 04/M01 A3029 RMK AO1

More Conditions Fewer Conditions

10-Day Weather Forecast

Almanac

Astronomy

Nov. 27, 2014 Rise Set
Actual Time
Civil Twilight
Nautical Twilight
Astronomical Twilight
Moon
Length of Visible Light
Length of Day
Tomorrow will be .
, % of the Moon is Illuminated

Today's Extremes

State Highs State Lows

Community

WunderPhotos

Upload Photos

1,773,995 photos uploaded!

WunderBlogs® & News

Nearby

Air Quality

  Air Quality AQ Index Pollutant
Not available.

Snow Depth

Station Depth Elevation

Earthquake Activity

City Distance Mag. Time & Date
Minimum magnitude displayed is 2.5.

Coastal Water Temperatures

Place Temperature

Nearby Weather Stations